Time;durP1;ratioP1;P1;durP2;ratioP2;P2;SDS_P1;SDS_P2;PMS_P1;PMS_P2;Temp;Humidity;BMP_temperature;BMP_pressure;BME280_temperature;BME280_humidity;BME280_pressure;Samples;Min_cycle;Max_cycle;Signal;HPM_P1;HPM_P2
2023/01/19 00:00:51;;;;;;;15.27;7.50;;;0.70;99.90;;;;;;5067692;28;20036;-61
2023/01/19 00:03:18;;;;;;;17.95;7.57;;;0.80;99.90;;;;;;5066557;28;20045;-61
2023/01/19 00:05:45;;;;;;;8.65;5.10;;;0.80;99.90;;;;;;5055320;28;20521;-61
2023/01/19 00:08:15;;;;;;;19.17;7.70;;;0.90;99.90;;;;;;5068550;28;20068;-61
2023/01/19 00:10:45;;;;;;;14.05;7.55;;;0.90;99.90;;;;;;5071774;28;20086;-61
2023/01/19 00:13:14;;;;;;;13.65;6.90;;;0.90;99.90;;;;;;5062708;28;20088;-61
2023/01/19 00:15:41;;;;;;;15.70;7.70;;;0.90;99.90;;;;;;5057293;28;20049;-60
2023/01/19 00:18:08;;;;;;;14.45;7.43;;;0.90;99.90;;;;;;5066237;28;20037;-60
2023/01/19 00:20:38;;;;;;;16.88;8.48;;;0.90;99.90;;;;;;5066417;28;20394;-60
2023/01/19 00:23:06;;;;;;;16.65;7.63;;;0.80;99.90;;;;;;5070953;28;20044;-60
2023/01/19 00:25:33;;;;;;;15.55;8.38;;;0.80;99.90;;;;;;5057762;28;20045;-60
2023/01/19 00:28:00;;;;;;;13.45;6.28;;;0.80;99.90;;;;;;5043486;28;20067;-60
2023/01/19 00:30:28;;;;;;;17.42;8.23;;;0.80;99.90;;;;;;5060396;28;20108;-60
2023/01/19 00:32:55;;;;;;;17.52;9.40;;;0.80;99.90;;;;;;5052907;28;20097;-61
2023/01/19 00:35:22;;;;;;;21.30;9.55;;;0.80;99.90;;;;;;5059621;28;20037;-60
2023/01/19 00:37:48;;;;;;;17.75;8.65;;;1.00;99.90;;;;;;5054989;28;20036;-61
2023/01/19 00:40:15;;;;;;;16.70;9.40;;;0.70;99.90;;;;;;5069313;28;20049;-61
2023/01/19 00:42:47;;;;;;;;;;;0.70;99.90;;;;;;5071254;28;20044;-60
2023/01/19 00:45:19;;;;;;;22.10;9.75;;;0.70;99.90;;;;;;5058542;28;19971;-60
2023/01/19 00:47:48;;;;;;;21.20;10.15;;;0.60;99.90;;;;;;5058836;28;20095;-60
2023/01/19 00:50:16;;;;;;;17.02;8.77;;;0.50;99.90;;;;;;5070355;28;20044;-60
2023/01/19 00:52:44;;;;;;;17.30;9.20;;;0.40;99.90;;;;;;5069848;28;20049;-60
2023/01/19 00:55:12;;;;;;;17.25;9.30;;;0.40;99.90;;;;;;5066905;28;20102;-60
2023/01/19 00:57:40;;;;;;;16.33;8.05;;;0.30;99.90;;;;;;5055962;28;20044;-60
2023/01/19 01:00:10;;;;;;;19.77;9.07;;;0.40;99.90;;;;;;5062251;28;20431;-60
2023/01/19 01:02:38;;;;;;;21.08;9.82;;;0.30;99.90;;;;;;5069106;28;20550;-60
2023/01/19 01:05:06;;;;;;;16.42;8.43;;;0.40;99.90;;;;;;5059602;28;20052;-61
2023/01/19 01:07:39;;;;;;;17.88;9.23;;;0.40;99.90;;;;;;5059608;28;20086;-60
2023/01/19 01:10:08;;;;;;;17.90;9.35;;;0.40;99.90;;;;;;5054478;28;20940;-61
2023/01/19 01:12:35;;;;;;;18.75;8.82;;;0.30;99.90;;;;;;5070168;28;20044;-60
2023/01/19 01:15:07;;;;;;;16.05;8.70;;;0.30;99.90;;;;;;5068413;28;20048;-60
2023/01/19 01:17:34;;;;;;;18.23;9.20;;;0.20;99.90;;;;;;5070685;28;20094;-60
2023/01/19 01:20:03;;;;;;;19.27;9.60;;;0.20;99.90;;;;;;5052766;28;20467;-61
2023/01/19 01:22:30;;;;;;;19.48;9.43;;;0.20;99.90;;;;;;5067897;28;20106;-60
2023/01/19 01:24:57;;;;;;;18.83;9.35;;;0.10;99.90;;;;;;5070501;28;20044;-60
2023/01/19 01:27:23;;;;;;;18.88;9.82;;;0.10;99.90;;;;;;5070545;28;20493;-60
2023/01/19 01:29:50;;;;;;;25.20;10.98;;;0.00;99.90;;;;;;5070949;28;20086;-58
2023/01/19 01:35:59;;;;;;;21.95;9.70;;;-0.10;99.90;;;;;;5042630;28;20052;-64
2023/01/19 01:38:26;;;;;;;26.05;11.05;;;-0.10;99.90;;;;;;5064008;28;20033;-61
2023/01/19 01:40:53;;;;;;;23.25;10.48;;;-0.20;99.90;;;;;;5060058;28;20902;-64
2023/01/19 01:43:20;;;;;;;26.35;11.63;;;-0.20;99.90;;;;;;5046665;28;20037;-64
2023/01/19 01:45:46;;;;;;;24.25;12.02;;;-0.20;99.90;;;;;;5044997;28;20041;-64
2023/01/19 01:48:29;;;;;;;20.55;10.55;;;-0.20;99.90;;;;;;5034048;28;20037;-62
2023/01/19 01:51:24;;;;;;;21.52;10.10;;;-0.20;99.90;;;;;;5046559;22;20053;-62
2023/01/19 01:54:08;;;;;;;23.70;10.80;;;-0.30;99.90;;;;;;5053431;28;20565;-62
2023/01/19 01:56:39;;;;;;;18.77;9.25;;;-0.20;99.90;;;;;;5030808;28;20111;-64
2023/01/19 01:59:11;;;;;;;24.65;11.40;;;-0.20;99.90;;;;;;5051094;28;20045;-62
2023/01/19 02:04:25;;;;;;;18.90;9.30;;;-0.20;99.90;;;;;;5070418;28;20066;-64
2023/01/19 02:15:17;;;;;;;19.92;9.90;;;-0.30;99.90;;;;;;5034734;28;20111;-63
2023/01/19 02:17:45;;;;;;;23.88;10.50;;;-0.30;99.90;;;;;;5070582;28;20429;-61
2023/01/19 02:20:12;;;;;;;24.67;10.90;;;-0.30;99.90;;;;;;5065614;22;20049;-60
2023/01/19 02:22:47;;;;;;;;;;;-0.30;99.90;;;;;;5049138;28;20041;-62
2023/01/19 02:25:16;;;;;;;20.15;9.52;;;-0.20;99.90;;;;;;5050011;28;20254;-62
2023/01/19 02:27:43;;;;;;;22.40;10.85;;;-0.20;99.90;;;;;;5047436;28;20088;-64
2023/01/19 02:30:12;;;;;;;18.27;9.60;;;-0.20;99.90;;;;;;5042977;28;20775;-62
2023/01/19 02:32:39;;;;;;;24.33;10.90;;;-0.20;99.90;;;;;;5030189;28;20108;-61
2023/01/19 02:35:06;;;;;;;26.23;12.18;;;-0.20;99.90;;;;;;5014924;28;20522;-61
2023/01/19 02:37:36;;;;;;;22.48;11.05;;;-0.20;99.90;;;;;;5013964;28;20058;-61
2023/01/19 02:40:09;;;;;;;21.77;10.57;;;-0.30;99.90;;;;;;5050119;28;20486;-59
2023/01/19 02:42:44;;;;;;;23.67;11.05;;;-0.30;99.90;;;;;;5023272;28;20533;-62
2023/01/19 02:45:14;;;;;;;21.70;11.52;;;-0.30;99.90;;;;;;5032960;28;20042;-62
2023/01/19 02:47:46;;;;;;;22.42;11.27;;;-0.30;99.90;;;;;;5032376;28;20091;-61
2023/01/19 02:50:34;;;;;;;23.05;11.52;;;-0.30;99.90;;;;;;5053695;28;20064;-63
2023/01/19 02:53:25;;;;;;;;;;;-0.30;99.90;;;;;;5046445;28;20383;-61
2023/01/19 02:56:10;;;;;;;25.67;12.02;;;-0.30;99.90;;;;;;5046496;28;19990;-63
2023/01/19 02:58:46;;;;;;;31.92;12.40;;;-0.30;99.90;;;;;;5052080;28;20044;-63
2023/01/19 03:01:50;;;;;;;33.88;14.32;;;-0.30;99.90;;;;;;5040947;28;20073;-63
2023/01/19 03:04:37;;;;;;;27.40;13.68;;;-0.30;99.90;;;;;;5041630;28;20071;-63
2023/01/19 03:07:30;;;;;;;33.55;14.57;;;-0.30;99.90;;;;;;5052879;28;20049;-63
2023/01/19 03:10:23;;;;;;;29.38;13.35;;;-0.30;99.90;;;;;;5023035;28;20179;-63
2023/01/19 03:12:57;;;;;;;33.10;14.25;;;-0.30;99.90;;;;;;4998064;28;20115;-63
2023/01/19 03:15:48;;;;;;;29.35;13.98;;;-0.40;99.90;;;;;;5053282;28;20073;-63
2023/01/19 03:18:20;;;;;;;26.45;12.07;;;-0.40;99.90;;;;;;5053149;28;20045;-63
2023/01/19 03:20:53;;;;;;;31.10;13.00;;;-0.40;99.90;;;;;;5042474;28;20041;-63
2023/01/19 03:23:25;;;;;;;33.15;14.23;;;-0.40;99.90;;;;;;5052498;28;20045;-64
2023/01/19 03:25:54;;;;;;;28.63;13.50;;;-0.40;99.90;;;;;;5052788;28;20037;-61
2023/01/19 03:28:24;;;;;;;27.38;13.38;;;-0.50;99.90;;;;;;5053149;28;20104;-63
2023/01/19 03:30:57;;;;;;;32.08;13.90;;;-0.50;99.90;;;;;;5048149;22;20049;-63
2023/01/19 03:33:30;;;;;;;30.25;12.80;;;-0.50;99.90;;;;;;5056943;28;20124;-63
2023/01/19 03:36:37;;;;;;;30.80;13.07;;;-0.40;99.90;;;;;;5054633;28;20068;-63
2023/01/19 03:39:08;;;;;;;35.95;14.40;;;-0.40;99.90;;;;;;5052515;28;20580;-61
2023/01/19 03:41:37;;;;;;;31.58;13.18;;;-0.40;99.90;;;;;;5031010;28;20658;-64
2023/01/19 03:44:11;;;;;;;29.73;12.93;;;-0.50;99.90;;;;;;5062780;28;20045;-63
2023/01/19 03:46:38;;;;;;;29.27;11.63;;;-0.40;99.90;;;;;;5052423;28;20072;-63
2023/01/19 03:49:07;;;;;;;25.92;11.90;;;-0.40;99.90;;;;;;5049169;28;20445;-64
2023/01/19 03:51:38;;;;;;;27.67;12.32;;;-0.40;99.90;;;;;;5056333;28;20489;-64
2023/01/19 03:54:06;;;;;;;36.03;12.23;;;-0.40;99.90;;;;;;5043777;28;20049;-63
2023/01/19 03:56:33;;;;;;;27.65;11.85;;;-0.40;99.90;;;;;;5032497;28;20111;-64
2023/01/19 03:58:59;;;;;;;19.42;8.60;;;-0.40;99.90;;;;;;5067216;28;20064;-63
2023/01/19 04:01:26;;;;;;;24.60;9.07;;;-0.40;99.90;;;;;;5071798;28;20080;-64
2023/01/19 04:03:53;;;;;;;20.70;10.73;;;-0.30;99.90;;;;;;5072264;28;20059;-63
2023/01/19 04:06:20;;;;;;;30.35;11.77;;;-0.30;99.90;;;;;;5037654;28;20720;-63
2023/01/19 04:08:48;;;;;;;22.58;10.95;;;-0.30;99.90;;;;;;5032284;28;20107;-63
2023/01/19 04:11:15;;;;;;;24.42;11.13;;;-0.30;99.90;;;;;;5041221;28;20402;-63
2023/01/19 04:13:42;;;;;;;19.67;9.52;;;-0.30;99.90;;;;;;5050484;28;20099;-63
2023/01/19 04:16:10;;;;;;;27.00;9.15;;;-0.30;99.90;;;;;;5055534;28;20056;-63
2023/01/19 04:18:37;;;;;;;17.20;8.70;;;-0.40;99.90;;;;;;5071794;28;20040;-63
2023/01/19 04:21:06;;;;;;;22.60;9.55;;;-0.40;99.90;;;;;;5057605;28;20048;-63
2023/01/19 04:23:33;;;;;;;19.23;8.50;;;-0.40;99.90;;;;;;5071434;28;20049;-63
2023/01/19 04:26:03;;;;;;;19.92;9.60;;;-0.40;99.90;;;;;;5060577;28;20067;-63
2023/01/19 04:28:31;;;;;;;20.75;10.38;;;-0.50;99.90;;;;;;5071667;28;20052;-63
2023/01/19 04:30:58;;;;;;;26.00;10.52;;;-0.50;99.90;;;;;;5062201;28;20085;-63
2023/01/19 04:33:26;;;;;;;23.60;10.48;;;-0.50;99.90;;;;;;5051242;28;20112;-63
2023/01/19 04:35:54;;;;;;;27.30;11.40;;;-0.50;99.90;;;;;;5057620;28;20575;-63
2023/01/19 04:38:22;;;;;;;25.63;10.98;;;-0.50;99.90;;;;;;5071570;28;20052;-63
2023/01/19 04:40:51;;;;;;;26.48;11.43;;;-0.50;99.90;;;;;;5064188;28;20045;-63
2023/01/19 04:43:22;;;;;;;20.20;10.05;;;-0.60;99.90;;;;;;5044188;28;20444;-63
2023/01/19 04:45:50;;;;;;;22.90;11.05;;;-0.60;99.90;;;;;;5047413;28;20041;-63
2023/01/19 04:48:17;;;;;;;26.70;10.55;;;-0.60;99.90;;;;;;5061215;28;20507;-63
2023/01/19 04:50:45;;;;;;;24.13;12.48;;;-0.60;99.90;;;;;;5065222;28;20029;-63
2023/01/19 04:53:12;;;;;;;25.67;11.85;;;-0.70;99.90;;;;;;5045695;28;20045;-63
2023/01/19 04:55:39;;;;;;;23.30;11.35;;;-0.70;99.90;;;;;;5065515;28;20057;-63
2023/01/19 04:58:07;;;;;;;26.13;10.70;;;-0.70;99.90;;;;;;5050458;28;20052;-63
2023/01/19 05:00:34;;;;;;;25.92;11.30;;;-0.70;99.90;;;;;;5047912;28;20049;-63
2023/01/19 05:03:01;;;;;;;22.55;10.38;;;-0.70;99.90;;;;;;5068500;28;20032;-63
2023/01/19 05:05:29;;;;;;;31.02;11.30;;;-0.70;99.90;;;;;;5066946;28;20037;-63
2023/01/19 05:07:55;;;;;;;20.42;10.35;;;-0.70;99.90;;;;;;5051257;28;20049;-63
2023/01/19 05:10:22;;;;;;;15.10;7.30;;;-0.70;99.90;;;;;;5046592;28;20053;-63
2023/01/19 05:12:50;;;;;;;20.73;9.02;;;-0.70;99.90;;;;;;5034828;28;20045;-63
2023/01/19 05:15:16;;;;;;;26.75;9.43;;;-0.70;99.90;;;;;;5051150;28;20392;-63
2023/01/19 05:17:43;;;;;;;20.15;9.00;;;-0.70;99.90;;;;;;5066149;28;20045;-63
2023/01/19 05:20:11;;;;;;;21.60;8.25;;;-0.70;99.90;;;;;;5045906;28;20065;-63
2023/01/19 05:22:42;;;;;;;18.88;8.82;;;-0.80;99.90;;;;;;5060752;28;20472;-63
2023/01/19 05:25:08;;;;;;;17.80;7.38;;;-0.80;99.90;;;;;;5056098;28;20080;-63
2023/01/19 05:27:36;;;;;;;17.92;7.85;;;-0.80;99.90;;;;;;5064847;28;20501;-63
2023/01/19 05:30:05;;;;;;;23.35;7.75;;;-0.90;99.90;;;;;;5069033;28;20049;-63
2023/01/19 05:32:32;;;;;;;15.50;7.78;;;-0.90;99.90;;;;;;5046944;28;20493;-63
2023/01/19 05:34:59;;;;;;;17.65;8.63;;;-1.00;99.90;;;;;;5061674;28;20095;-63
2023/01/19 05:37:25;;;;;;;21.58;7.40;;;-0.90;99.90;;;;;;5048905;28;20052;-63
2023/01/19 05:39:53;;;;;;;13.93;7.68;;;-1.00;99.90;;;;;;5046539;28;20440;-63
2023/01/19 05:42:19;;;;;;;;;;;-1.00;99.90;;;;;;5051370;28;20091;-63
2023/01/19 05:44:46;;;;;;;15.88;7.18;;;-1.00;99.90;;;;;;5032388;28;19978;-64
2023/01/19 05:47:13;;;;;;;23.00;7.97;;;-1.00;99.90;;;;;;5050437;28;20103;-64
2023/01/19 05:49:39;;;;;;;11.27;4.50;;;-1.00;99.90;;;;;;5048356;28;20041;-63
2023/01/19 05:52:06;;;;;;;13.57;6.63;;;-1.00;99.90;;;;;;5049739;28;20493;-63
2023/01/19 05:54:33;;;;;;;17.55;7.45;;;-1.10;99.90;;;;;;5047644;28;20068;-63
2023/01/19 05:57:00;;;;;;;18.33;7.55;;;-1.00;99.90;;;;;;5050155;28;20561;-63
2023/01/19 05:59:27;;;;;;;17.73;7.75;;;-1.00;99.90;;;;;;5032032;28;20559;-63
2023/01/19 06:01:54;;;;;;;21.25;8.68;;;-1.10;99.90;;;;;;5051339;28;20048;-63
2023/01/19 06:04:21;;;;;;;17.58;8.82;;;-1.10;99.90;;;;;;5053845;28;20547;-63
2023/01/19 06:06:49;;;;;;;20.48;8.57;;;-1.00;99.90;;;;;;5052931;28;20037;-63
2023/01/19 06:09:16;;;;;;;15.35;8.18;;;-1.00;99.90;;;;;;5053804;28;20060;-63
2023/01/19 06:11:43;;;;;;;;;;;-1.00;99.90;;;;;;5050178;28;20041;-63
2023/01/19 06:14:10;;;;;;;25.00;9.80;;;-1.00;99.90;;;;;;5051180;28;19967;-63
2023/01/19 06:16:37;;;;;;;;;;;-1.00;99.90;;;;;;5054409;28;20045;-63
2023/01/19 06:19:04;;;;;;;22.58;8.93;;;-1.00;99.90;;;;;;5050664;28;19947;-63
2023/01/19 06:21:31;;;;;;;19.88;8.95;;;-1.00;99.90;;;;;;5046189;28;20073;-63
2023/01/19 06:23:57;;;;;;;;;;;-1.00;99.90;;;;;;5039482;28;20038;-63
2023/01/19 06:26:25;;;;;;;25.08;8.98;;;-0.90;99.90;;;;;;5049261;28;19929;-63
2023/01/19 06:28:52;;;;;;;23.00;9.38;;;-0.90;99.90;;;;;;5052639;28;20401;-63
2023/01/19 06:31:19;;;;;;;22.83;9.93;;;-0.90;99.90;;;;;;5037067;28;20111;-63
2023/01/19 06:33:46;;;;;;;26.00;10.40;;;-0.90;99.90;;;;;;5038045;28;20037;-63
2023/01/19 06:36:12;;;;;;;21.23;9.05;;;-0.80;99.90;;;;;;5038579;28;20103;-63
2023/01/19 06:38:39;;;;;;;20.55;9.27;;;-0.80;99.90;;;;;;5070585;28;20040;-63
2023/01/19 06:41:06;;;;;;;20.20;8.70;;;-0.80;99.90;;;;;;5072802;28;20523;-62
2023/01/19 06:43:33;;;;;;;20.75;8.38;;;-0.80;99.90;;;;;;5072421;28;20044;-62
2023/01/19 06:46:00;;;;;;;18.42;8.43;;;-0.70;99.90;;;;;;5063801;28;20044;-63
2023/01/19 06:48:27;;;;;;;17.92;7.60;;;-0.80;99.90;;;;;;5054637;28;20041;-63
2023/01/19 06:50:53;;;;;;;20.23;7.97;;;-0.80;99.90;;;;;;5053555;28;20409;-63
2023/01/19 06:53:22;;;;;;;17.73;8.48;;;-0.80;99.90;;;;;;5052274;28;20468;-63
2023/01/19 06:55:49;;;;;;;14.35;7.65;;;-0.80;99.90;;;;;;5056333;28;20045;-63
2023/01/19 06:58:16;;;;;;;20.48;8.05;;;-0.80;99.90;;;;;;5053094;28;20098;-63
2023/01/19 07:00:43;;;;;;;19.23;8.07;;;-0.80;99.90;;;;;;5052413;28;20049;-63
2023/01/19 07:03:18;;;;;;;22.48;8.55;;;-0.70;99.90;;;;;;5050972;28;20052;-63
2023/01/19 07:05:46;;;;;;;21.98;8.75;;;-0.80;99.90;;;;;;5072402;28;20051;-63
2023/01/19 07:08:14;;;;;;;19.05;8.77;;;-0.70;99.90;;;;;;5055348;28;20040;-63
2023/01/19 07:10:41;;;;;;;19.23;9.00;;;-0.70;99.90;;;;;;5057410;28;20051;-63
2023/01/19 07:13:28;;;;;;;20.02;8.43;;;-0.70;99.90;;;;;;5051856;28;20055;-63
2023/01/19 07:15:54;;;;;;;24.13;8.85;;;-0.60;99.90;;;;;;5049709;28;20418;-62
2023/01/19 07:18:21;;;;;;;20.00;7.55;;;-0.60;99.90;;;;;;5069136;28;20040;-63
2023/01/19 07:20:48;;;;;;;17.38;8.18;;;-0.60;99.90;;;;;;5052641;28;20037;-62
2023/01/19 07:23:15;;;;;;;18.08;8.73;;;-0.50;99.90;;;;;;5050930;28;20513;-63
2023/01/19 07:25:45;;;;;;;17.15;8.38;;;-0.50;99.90;;;;;;5044309;28;20095;-63
2023/01/19 07:28:14;;;;;;;25.13;8.30;;;-0.40;99.90;;;;;;5053127;28;20037;-63
2023/01/19 07:30:42;;;;;;;18.00;8.48;;;-0.40;99.90;;;;;;5076437;22;20032;-61
2023/01/19 07:33:09;;;;;;;15.40;8.27;;;-0.40;99.90;;;;;;5051643;28;20044;-62
2023/01/19 07:35:36;;;;;;;23.83;8.40;;;-0.40;99.90;;;;;;5056898;28;20063;-62
2023/01/19 07:38:03;;;;;;;19.55;7.88;;;-0.50;99.90;;;;;;5052419;28;20049;-60
2023/01/19 07:40:30;;;;;;;17.38;8.75;;;-0.50;99.90;;;;;;5053772;28;20097;-62
2023/01/19 07:42:56;;;;;;;17.25;8.85;;;-0.40;99.90;;;;;;5048388;28;20075;-60
2023/01/19 07:45:24;;;;;;;;;;;-0.70;99.90;;;;;;5052123;28;20048;-60
2023/01/19 07:47:53;;;;;;;20.02;9.02;;;-0.30;99.90;;;;;;5058970;28;20377;-59
2023/01/19 07:50:23;;;;;;;19.45;9.13;;;-0.20;99.90;;;;;;5072144;28;20110;-62
2023/01/19 07:52:52;;;;;;;19.92;9.55;;;-0.20;99.90;;;;;;5071725;28;20071;-60
2023/01/19 07:55:20;;;;;;;19.05;8.10;;;-0.20;99.90;;;;;;5065170;28;20041;-60
2023/01/19 07:57:50;;;;;;;22.48;8.98;;;-0.10;99.90;;;;;;5040630;28;20049;-60
2023/01/19 08:00:20;;;;;;;21.77;10.48;;;0.00;99.90;;;;;;5051916;28;20041;-62
2023/01/19 08:02:50;;;;;;;22.95;10.13;;;0.00;99.90;;;;;;5057822;28;20048;-62
2023/01/19 08:05:18;;;;;;;19.88;10.15;;;0.00;99.90;;;;;;5054557;28;20094;-62
2023/01/19 08:07:45;;;;;;;23.80;9.68;;;0.10;99.90;;;;;;5070570;28;20562;-60
2023/01/19 08:10:13;;;;;;;23.08;10.40;;;0.10;99.90;;;;;;5070950;28;20068;-60
2023/01/19 08:12:41;;;;;;;24.85;10.85;;;0.20;99.90;;;;;;5058761;28;20036;-60
2023/01/19 08:15:09;;;;;;;22.05;9.38;;;0.20;99.90;;;;;;5068582;28;20040;-62
2023/01/19 08:17:36;;;;;;;22.02;10.60;;;0.20;99.90;;;;;;5071730;28;20094;-60
2023/01/19 08:20:03;;;;;;;24.40;9.05;;;0.30;99.90;;;;;;5071812;28;20044;-60
2023/01/19 08:22:30;;;;;;;21.75;9.90;;;0.40;99.90;;;;;;5062397;28;20062;-60
2023/01/19 08:24:57;;;;;;;17.92;8.98;;;0.40;99.90;;;;;;5071362;28;20123;-60
2023/01/19 08:27:24;;;;;;;11.07;6.28;;;0.50;99.90;;;;;;5071362;28;20613;-60
2023/01/19 08:29:50;;;;;;;15.23;8.75;;;0.50;99.90;;;;;;5071871;28;20044;-62
2023/01/19 08:32:17;;;;;;;14.02;7.22;;;0.50;99.90;;;;;;5046061;28;20045;-60
2023/01/19 08:34:44;;;;;;;19.98;9.20;;;0.60;99.90;;;;;;5064547;28;20045;-60
2023/01/19 08:37:11;;;;;;;21.75;9.95;;;0.70;99.90;;;;;;5050712;28;20041;-60
2023/01/19 08:39:38;;;;;;;22.85;9.30;;;0.80;99.90;;;;;;5051331;28;20508;-60
2023/01/19 08:42:04;;;;;;;13.95;7.72;;;0.80;99.90;;;;;;5045590;28;20037;-60
2023/01/19 08:44:31;;;;;;;13.55;6.63;;;0.90;99.90;;;;;;5044959;28;20445;-60
2023/01/19 08:46:58;;;;;;;13.77;6.85;;;0.90;99.90;;;;;;5051068;28;20045;-60
2023/01/19 08:49:25;;;;;;;18.45;9.52;;;0.90;99.90;;;;;;5066939;28;20037;-60
2023/01/19 08:51:52;;;;;;;19.52;9.15;;;1.00;99.90;;;;;;5050526;28;20045;-60
2023/01/19 08:54:20;;;;;;;15.98;9.20;;;1.10;99.90;;;;;;5048880;28;20501;-60
2023/01/19 08:56:47;;;;;;;18.83;9.10;;;1.20;99.90;;;;;;5039487;28;20037;-60
2023/01/19 08:59:14;;;;;;;19.58;8.52;;;1.20;99.90;;;;;;5050591;28;20453;-60
2023/01/19 09:01:40;;;;;;;12.25;6.10;;;1.20;99.90;;;;;;5050143;28;20049;-60
2023/01/19 09:04:07;;;;;;;20.23;9.43;;;1.30;99.90;;;;;;5070992;28;20044;-60
2023/01/19 09:06:34;;;;;;;11.30;6.15;;;1.30;99.90;;;;;;5059543;28;20069;-61
2023/01/19 09:09:01;;;;;;;15.05;8.18;;;1.40;99.90;;;;;;5070782;28;20047;-60
2023/01/19 09:11:28;;;;;;;14.63;7.68;;;1.50;99.90;;;;;;5069904;28;20041;-60
2023/01/19 09:13:55;;;;;;;19.20;7.10;;;1.50;99.90;;;;;;5071205;28;20044;-60
2023/01/19 09:16:21;;;;;;;14.88;6.70;;;1.50;99.90;;;;;;5054681;28;20080;-60
2023/01/19 09:18:48;;;;;;;13.10;6.88;;;1.60;99.90;;;;;;5042753;28;20060;-60
2023/01/19 09:21:15;;;;;;;11.05;5.82;;;1.60;99.90;;;;;;5047772;28;20044;-61
2023/01/19 09:23:42;;;;;;;16.70;6.07;;;1.70;99.90;;;;;;5070570;28;20458;-60
2023/01/19 09:26:09;;;;;;;13.38;6.40;;;1.80;99.90;;;;;;5070619;28;20055;-60
2023/01/19 09:28:36;;;;;;;12.88;5.88;;;1.80;99.90;;;;;;5068632;28;20382;-60
2023/01/19 09:31:05;;;;;;;14.00;6.32;;;1.80;99.90;;;;;;5040271;28;20049;-60
2023/01/19 09:33:33;;;;;;;13.43;6.07;;;1.70;99.90;;;;;;5047600;28;20127;-60
2023/01/19 09:36:00;;;;;;;10.77;5.78;;;1.80;99.90;;;;;;5067279;28;20113;-59
2023/01/19 09:38:31;;;;;;;9.93;5.70;;;1.90;99.90;;;;;;5075215;28;20055;-60
2023/01/19 09:40:59;;;;;;;10.75;5.78;;;1.90;99.90;;;;;;5074714;28;20051;-61
2023/01/19 09:43:44;;;;;;;15.45;7.22;;;2.00;99.90;;;;;;5056488;28;20045;-60
2023/01/19 09:46:27;;;;;;;15.68;6.72;;;2.10;99.90;;;;;;5043053;28;20049;-60
2023/01/19 09:48:57;;;;;;;14.73;5.90;;;2.20;99.90;;;;;;5068148;28;20051;-61
2023/01/19 09:51:31;;;;;;;13.85;6.57;;;2.30;99.90;;;;;;5053342;28;20102;-61
2023/01/19 09:54:17;;;;;;;13.38;6.53;;;2.30;99.90;;;;;;5053742;28;20502;-60
2023/01/19 09:56:46;;;;;;;10.63;5.10;;;2.30;99.90;;;;;;5060292;28;20041;-60
2023/01/19 09:59:25;;;;;;;10.85;5.28;;;2.20;99.90;;;;;;5063648;28;20073;-60
2023/01/19 10:02:19;;;;;;;13.35;6.38;;;2.10;99.90;;;;;;5053877;28;20045;-60
2023/01/19 10:05:21;;;;;;;14.60;6.55;;;2.20;99.90;;;;;;5060381;28;20528;-60
2023/01/19 10:08:42;;;;;;;12.90;6.43;;;2.30;99.90;;;;;;5058505;28;20095;-60
2023/01/19 10:11:21;;;;;;;13.38;5.95;;;2.30;99.90;;;;;;4973644;28;20136;-60
2023/01/19 10:13:50;;;;;;;9.70;5.18;;;2.20;99.90;;;;;;5064592;28;20048;-60
2023/01/19 10:16:26;;;;;;;10.95;5.95;;;2.20;99.90;;;;;;5073860;28;20056;-60
2023/01/19 10:18:58;;;;;;;11.00;5.45;;;2.30;99.90;;;;;;5071448;28;20416;-60
2023/01/19 10:21:39;;;;;;;12.88;5.43;;;2.30;99.90;;;;;;5058722;28;20489;-60
2023/01/19 10:24:45;;;;;;;11.15;5.80;;;2.40;99.90;;;;;;5069500;28;20072;-62
2023/01/19 10:27:19;;;;;;;11.90;5.97;;;2.40;99.90;;;;;;5009816;28;20458;-62
2023/01/19 10:29:46;;;;;;;20.50;5.95;;;2.30;99.90;;;;;;5010840;28;20050;-60
2023/01/19 10:32:21;;;;;;;8.88;4.47;;;2.30;99.90;;;;;;5023856;28;20454;-60
2023/01/19 10:34:49;;;;;;;12.40;6.35;;;2.30;99.90;;;;;;5056360;28;20114;-59
2023/01/19 10:37:39;;;;;;;13.43;6.35;;;2.20;99.90;;;;;;5073885;28;20044;-59
2023/01/19 10:40:09;;;;;;;9.23;5.53;;;2.20;99.90;;;;;;5073593;28;20048;-62
2023/01/19 10:42:38;;;;;;;11.27;5.35;;;2.20;99.90;;;;;;5069919;28;20050;-62
2023/01/19 10:45:24;;;;;;;15.35;6.40;;;2.20;99.90;;;;;;5043165;28;20042;-62
2023/01/19 10:47:53;;;;;;;13.98;5.80;;;2.30;99.90;;;;;;5053478;28;20045;-60
2023/01/19 10:50:35;;;;;;;8.88;4.68;;;2.30;99.90;;;;;;5060375;28;20056;-61
2023/01/19 10:53:04;;;;;;;12.48;5.85;;;2.20;99.90;;;;;;5073189;28;20049;-62
2023/01/19 10:55:38;;;;;;;12.63;5.93;;;2.30;99.90;;;;;;5073649;28;20433;-62
2023/01/19 10:58:25;;;;;;;13.73;6.03;;;2.20;99.90;;;;;;5065652;28;20041;-62
2023/01/19 11:00:51;;;;;;;11.82;6.22;;;2.20;99.90;;;;;;5045083;28;20559;-62
2023/01/19 11:03:23;;;;;;;12.00;5.72;;;2.20;99.90;;;;;;5053018;28;20327;-63
2023/01/19 11:05:50;;;;;;;9.48;5.80;;;2.30;99.90;;;;;;5051719;28;20045;-62
2023/01/19 11:08:28;;;;;;;13.25;5.45;;;2.20;99.90;;;;;;5060704;28;20069;-59
2023/01/19 11:10:58;;;;;;;;;;;2.00;99.90;;;;;;5050948;28;20485;-62
2023/01/19 11:13:25;;;;;;;13.13;5.18;;;2.10;99.90;;;;;;5045662;28;20389;-60
2023/01/19 11:15:58;;;;;;;13.35;5.97;;;2.30;99.90;;;;;;5041016;28;20444;-62
2023/01/19 11:18:35;;;;;;;10.40;5.82;;;2.30;99.90;;;;;;5052158;28;20049;-62
2023/01/19 11:21:05;;;;;;;;;;;2.40;99.90;;;;;;5070780;28;20037;-60
2023/01/19 11:23:48;;;;;;;12.88;5.50;;;2.40;99.90;;;;;;5072526;28;20015;-62
2023/01/19 11:26:25;;;;;;;9.82;5.28;;;2.40;99.90;;;;;;5072772;28;20114;-62
2023/01/19 11:28:55;;;;;;;12.68;5.65;;;2.40;99.90;;;;;;5064724;28;20041;-60
2023/01/19 11:31:27;;;;;;;12.68;5.55;;;2.40;99.90;;;;;;5043299;28;20037;-62
2023/01/19 11:34:04;;;;;;;10.75;5.57;;;2.30;99.90;;;;;;5065718;28;20083;-62
2023/01/19 11:36:35;;;;;;;9.75;4.80;;;2.30;99.90;;;;;;5072488;28;20053;-60
2023/01/19 11:39:20;;;;;;;11.30;5.22;;;2.30;99.90;;;;;;5068392;28;20052;-63
2023/01/19 11:41:50;;;;;;;12.95;4.75;;;2.30;99.90;;;;;;5071552;28;20048;-60
2023/01/19 11:44:21;;;;;;;13.07;5.30;;;2.40;99.90;;;;;;5072834;28;20048;-62
2023/01/19 11:46:57;;;;;;;10.68;4.38;;;2.40;99.90;;;;;;5056498;28;20041;-62
2023/01/19 11:49:29;;;;;;;15.45;5.47;;;2.20;99.90;;;;;;5041005;28;20091;-63
2023/01/19 11:52:20;;;;;;;10.50;5.22;;;2.30;99.90;;;;;;5032045;28;20061;-62
2023/01/19 11:55:13;;;;;;;10.13;4.25;;;2.30;99.90;;;;;;5072186;28;20037;-62
2023/01/19 11:57:47;;;;;;;7.72;4.18;;;2.50;99.90;;;;;;5071828;28;20413;-62
2023/01/19 12:00:34;;;;;;;9.30;4.90;;;2.50;99.90;;;;;;5072394;28;20048;-63
2023/01/19 12:03:29;;;;;;;10.48;4.68;;;2.50;99.90;;;;;;5046621;28;20045;-60
2023/01/19 12:06:02;;;;;;;10.57;4.03;;;2.50;99.90;;;;;;5054623;28;20086;-62
2023/01/19 12:08:34;;;;;;;8.93;4.22;;;2.50;99.90;;;;;;5072151;28;20032;-62
2023/01/19 12:11:04;;;;;;;8.85;4.10;;;2.60;99.90;;;;;;5070991;28;20511;-62
2023/01/19 12:13:32;;;;;;;7.57;4.50;;;2.70;99.90;;;;;;5067425;28;20060;-60
2023/01/19 12:16:02;;;;;;;6.78;3.97;;;2.60;99.90;;;;;;5071566;28;20093;-61
2023/01/19 12:18:36;;;;;;;12.00;4.82;;;2.50;99.90;;;;;;5071717;28;20032;-62
2023/01/19 12:21:03;;;;;;;14.73;5.68;;;2.60;99.90;;;;;;5064970;28;20496;-62
2023/01/19 12:24:11;;;;;;;8.52;3.97;;;2.70;99.90;;;;;;5061385;28;20045;-60
2023/01/19 12:26:55;;;;;;;8.38;3.88;;;2.70;99.90;;;;;;4970506;28;20479;-62
2023/01/19 12:29:29;;;;;;;12.10;5.22;;;2.70;99.90;;;;;;5063327;28;20080;-62
2023/01/19 12:32:16;;;;;;;6.43;3.92;;;2.70;99.90;;;;;;5064586;28;20090;-59
2023/01/19 12:34:50;;;;;;;12.68;4.97;;;2.80;99.90;;;;;;5071301;28;20052;-60
2023/01/19 12:37:28;;;;;;;8.05;4.25;;;2.70;99.90;;;;;;5071033;28;20041;-62
2023/01/19 12:39:57;;;;;;;;;;;2.60;99.90;;;;;;5060218;28;20045;-62
2023/01/19 12:42:25;;;;;;;9.98;4.45;;;2.70;99.90;;;;;;5043395;28;20075;-62
2023/01/19 12:45:13;;;;;;;11.10;3.95;;;2.80;99.90;;;;;;5064929;28;20568;-62
2023/01/19 12:47:50;;;;;;;12.07;3.90;;;2.80;99.90;;;;;;5071209;28;20102;-60
2023/01/19 12:50:22;;;;;;;10.65;3.90;;;2.70;99.90;;;;;;5071483;28;20045;-60
2023/01/19 12:52:57;;;;;;;7.45;3.97;;;2.70;99.90;;;;;;5066507;28;20040;-60
2023/01/19 12:55:29;;;;;;;10.88;4.10;;;2.60;99.90;;;;;;5035374;28;20039;-60
2023/01/19 12:58:07;;;;;;;11.93;5.00;;;2.60;99.90;;;;;;5065741;28;20485;-61
2023/01/19 13:00:40;;;;;;;5.60;3.27;;;2.60;99.90;;;;;;5071021;28;20067;-60
2023/01/19 13:03:16;;;;;;;9.70;4.28;;;2.60;99.90;;;;;;5070686;28;20815;-60
2023/01/19 13:05:42;;;;;;;9.32;3.95;;;2.40;99.90;;;;;;5066642;28;20047;-60
2023/01/19 13:08:10;;;;;;;7.97;4.70;;;2.30;99.90;;;;;;5070671;28;20536;-62
2023/01/19 13:10:54;;;;;;;11.77;4.22;;;2.40;99.90;;;;;;5070883;28;20048;-60
2023/01/19 13:13:43;;;;;;;10.82;5.47;;;2.30;99.90;;;;;;5065346;28;20815;-61
2023/01/19 13:16:23;;;;;;;10.07;4.63;;;2.40;99.90;;;;;;5071212;28;20443;-62
2023/01/19 13:19:00;;;;;;;11.57;5.15;;;2.50;99.90;;;;;;5070315;28;20032;-61